sensor_id;sensor_type;location;lat;lon;timestamp;pressure;altitude;pressure_sealevel;temperature;humidity
23303;BME280;11820;48.738;9.092;2023-06-14T00:02:22;95817.66;;;17.68;61.23
23303;BME280;11820;48.738;9.092;2023-06-14T00:04:48;95813.28;;;17.74;61.04
23303;BME280;11820;48.738;9.092;2023-06-14T00:07:13;95815.47;;;17.55;61.25
23303;BME280;11820;48.738;9.092;2023-06-14T00:09:38;95813.00;;;17.44;62.35
23303;BME280;11820;48.738;9.092;2023-06-14T00:12:04;95820.34;;;17.47;62.95
23303;BME280;11820;48.738;9.092;2023-06-14T00:14:31;95820.28;;;17.68;61.91
23303;BME280;11820;48.738;9.092;2023-06-14T00:16:56;95818.31;;;17.80;62.02
23303;BME280;11820;48.738;9.092;2023-06-14T00:19:24;95819.09;;;17.49;63.23
23303;BME280;11820;48.738;9.092;2023-06-14T00:21:50;95816.75;;;17.53;63.16
23303;BME280;11820;48.738;9.092;2023-06-14T00:24:17;95816.50;;;17.54;63.38
23303;BME280;11820;48.738;9.092;2023-06-14T00:26:42;95813.09;;;17.54;63.40
23303;BME280;11820;48.738;9.092;2023-06-14T00:29:07;95819.63;;;17.51;63.50
23303;BME280;11820;48.738;9.092;2023-06-14T00:31:32;95818.16;;;17.65;63.21
23303;BME280;11820;48.738;9.092;2023-06-14T00:33:58;95816.94;;;17.46;63.60
23303;BME280;11820;48.738;9.092;2023-06-14T00:36:23;95811.78;;;17.30;63.94
23303;BME280;11820;48.738;9.092;2023-06-14T00:38:48;95822.44;;;17.45;63.97
23303;BME280;11820;48.738;9.092;2023-06-14T00:41:14;95823.91;;;17.36;63.74
23303;BME280;11820;48.738;9.092;2023-06-14T00:43:39;95814.72;;;17.12;65.13
23303;BME280;11820;48.738;9.092;2023-06-14T00:46:04;95811.69;;;17.20;64.92
23303;BME280;11820;48.738;9.092;2023-06-14T00:48:30;95809.06;;;17.20;64.74
23303;BME280;11820;48.738;9.092;2023-06-14T00:50:57;95816.34;;;16.96;65.76
23303;BME280;11820;48.738;9.092;2023-06-14T00:53:23;95819.09;;;16.63;66.41
23303;BME280;11820;48.738;9.092;2023-06-14T00:55:50;95814.84;;;16.57;67.11
23303;BME280;11820;48.738;9.092;2023-06-14T00:58:15;95816.63;;;16.57;66.57
23303;BME280;11820;48.738;9.092;2023-06-14T01:00:41;95822.19;;;16.60;67.11
23303;BME280;11820;48.738;9.092;2023-06-14T01:03:07;95813.81;;;17.01;65.53
23303;BME280;11820;48.738;9.092;2023-06-14T01:05:33;95817.56;;;16.67;66.72
23303;BME280;11820;48.738;9.092;2023-06-14T01:08:24;95802.09;;;16.61;67.35
23303;BME280;11820;48.738;9.092;2023-06-14T01:10:57;95805.28;;;16.46;67.85
23303;BME280;11820;48.738;9.092;2023-06-14T01:13:33;95812.34;;;16.67;67.22
23303;BME280;11820;48.738;9.092;2023-06-14T01:15:59;95805.94;;;16.37;68.25
23303;BME280;11820;48.738;9.092;2023-06-14T01:18:27;95810.69;;;16.61;67.49
23303;BME280;11820;48.738;9.092;2023-06-14T01:20:55;95816.84;;;16.50;67.53
23303;BME280;11820;48.738;9.092;2023-06-14T01:23:22;95816.69;;;16.24;68.80
23303;BME280;11820;48.738;9.092;2023-06-14T01:25:48;95821.72;;;16.47;67.60
23303;BME280;11820;48.738;9.092;2023-06-14T01:28:18;95816.75;;;16.45;67.81
23303;BME280;11820;48.738;9.092;2023-06-14T01:30:47;95814.13;;;16.45;67.29
23303;BME280;11820;48.738;9.092;2023-06-14T01:33:26;95817.66;;;16.72;66.57
23303;BME280;11820;48.738;9.092;2023-06-14T01:35:53;95822.59;;;16.52;67.66
23303;BME280;11820;48.738;9.092;2023-06-14T01:38:24;95820.47;;;16.49;67.30
23303;BME280;11820;48.738;9.092;2023-06-14T01:40:50;95820.38;;;16.44;67.30
23303;BME280;11820;48.738;9.092;2023-06-14T01:43:18;95815.59;;;16.36;67.53
23303;BME280;11820;48.738;9.092;2023-06-14T01:45:45;95811.28;;;16.30;67.87
23303;BME280;11820;48.738;9.092;2023-06-14T01:48:12;95816.22;;;16.11;68.55
23303;BME280;11820;48.738;9.092;2023-06-14T01:50:37;95820.81;;;15.87;69.74
23303;BME280;11820;48.738;9.092;2023-06-14T01:53:06;95822.06;;;16.01;69.09
23303;BME280;11820;48.738;9.092;2023-06-14T01:55:32;95814.16;;;15.96;69.24
23303;BME280;11820;48.738;9.092;2023-06-14T01:58:02;95820.47;;;15.84;70.21
23303;BME280;11820;48.738;9.092;2023-06-14T02:00:28;95821.59;;;15.88;70.52
23303;BME280;11820;48.738;9.092;2023-06-14T02:02:53;95817.94;;;15.72;71.26
23303;BME280;11820;48.738;9.092;2023-06-14T02:05:18;95816.06;;;16.01;70.33
23303;BME280;11820;48.738;9.092;2023-06-14T02:07:45;95823.00;;;16.44;68.93
23303;BME280;11820;48.738;9.092;2023-06-14T02:10:11;95826.41;;;16.28;69.20
23303;BME280;11820;48.738;9.092;2023-06-14T02:12:36;95824.91;;;15.83;70.48
23303;BME280;11820;48.738;9.092;2023-06-14T02:15:02;95830.28;;;15.93;70.87
23303;BME280;11820;48.738;9.092;2023-06-14T02:17:28;95817.94;;;15.89;70.90
23303;BME280;11820;48.738;9.092;2023-06-14T02:19:54;95817.63;;;15.69;71.56
23303;BME280;11820;48.738;9.092;2023-06-14T02:22:20;95818.91;;;15.83;71.35
23303;BME280;11820;48.738;9.092;2023-06-14T02:24:47;95816.84;;;16.01;70.83
23303;BME280;11820;48.738;9.092;2023-06-14T02:27:12;95820.47;;;16.00;71.33
23303;BME280;11820;48.738;9.092;2023-06-14T02:29:38;95816.22;;;15.94;71.06
23303;BME280;11820;48.738;9.092;2023-06-14T02:32:06;95821.28;;;16.01;70.71
23303;BME280;11820;48.738;9.092;2023-06-14T02:34:33;95822.06;;;15.85;71.11
23303;BME280;11820;48.738;9.092;2023-06-14T02:36:59;95819.53;;;15.90;70.97
23303;BME280;11820;48.738;9.092;2023-06-14T02:39:24;95821.91;;;15.75;71.57
23303;BME280;11820;48.738;9.092;2023-06-14T02:41:49;95818.88;;;15.50;72.62
23303;BME280;11820;48.738;9.092;2023-06-14T02:44:17;95825.16;;;15.37;73.44
23303;BME280;11820;48.738;9.092;2023-06-14T02:46:43;95820.75;;;15.54;73.22
23303;BME280;11820;48.738;9.092;2023-06-14T02:49:09;95821.41;;;15.61;72.82
23303;BME280;11820;48.738;9.092;2023-06-14T02:51:34;95817.91;;;15.39;73.82
23303;BME280;11820;48.738;9.092;2023-06-14T02:54:00;95816.41;;;15.43;73.80
23303;BME280;11820;48.738;9.092;2023-06-14T02:56:25;95821.19;;;15.35;74.48
23303;BME280;11820;48.738;9.092;2023-06-14T02:58:51;95821.53;;;15.38;74.90
23303;BME280;11820;48.738;9.092;2023-06-14T03:01:16;95817.38;;;15.26;75.85
23303;BME280;11820;48.738;9.092;2023-06-14T03:03:42;95821.75;;;15.37;75.08
23303;BME280;11820;48.738;9.092;2023-06-14T03:06:07;95815.97;;;15.35;75.21
23303;BME280;11820;48.738;9.092;2023-06-14T03:08:33;95815.78;;;15.25;75.31
23303;BME280;11820;48.738;9.092;2023-06-14T03:11:03;95823.50;;;15.31;75.39
23303;BME280;11820;48.738;9.092;2023-06-14T03:13:30;95816.19;;;15.45;74.73
23303;BME280;11820;48.738;9.092;2023-06-14T03:15:57;95822.56;;;15.37;75.46
23303;BME280;11820;48.738;9.092;2023-06-14T03:18:22;95826.34;;;15.46;74.67
23303;BME280;11820;48.738;9.092;2023-06-14T03:20:48;95821.97;;;15.07;76.45
23303;BME280;11820;48.738;9.092;2023-06-14T03:23:13;95825.09;;;15.21;76.71
23303;BME280;11820;48.738;9.092;2023-06-14T03:25:38;95829.44;;;15.04;77.78
23303;BME280;11820;48.738;9.092;2023-06-14T03:28:07;95826.72;;;15.10;77.44
23303;BME280;11820;48.738;9.092;2023-06-14T03:30:32;95831.88;;;15.22;77.49
23303;BME280;11820;48.738;9.092;2023-06-14T03:32:58;95832.59;;;15.06;78.09
23303;BME280;11820;48.738;9.092;2023-06-14T03:35:26;95835.31;;;15.11;78.60
23303;BME280;11820;48.738;9.092;2023-06-14T03:37:52;95837.63;;;15.35;77.04
23303;BME280;11820;48.738;9.092;2023-06-14T03:40:18;95835.63;;;15.54;76.42
23303;BME280;11820;48.738;9.092;2023-06-14T03:42:45;95838.91;;;15.49;76.75
23303;BME280;11820;48.738;9.092;2023-06-14T03:45:10;95836.44;;;15.43;76.67
23303;BME280;11820;48.738;9.092;2023-06-14T03:47:36;95846.88;;;15.43;76.83
23303;BME280;11820;48.738;9.092;2023-06-14T03:50:04;95840.31;;;15.40;77.67
23303;BME280;11820;48.738;9.092;2023-06-14T03:52:31;95852.28;;;15.13;77.77
23303;BME280;11820;48.738;9.092;2023-06-14T03:54:56;95852.16;;;15.20;77.86
23303;BME280;11820;48.738;9.092;2023-06-14T03:57:23;95853.91;;;15.42;76.73
23303;BME280;11820;48.738;9.092;2023-06-14T03:59:48;95853.66;;;15.44;76.82
23303;BME280;11820;48.738;9.092;2023-06-14T04:02:14;95854.19;;;15.57;76.59
23303;BME280;11820;48.738;9.092;2023-06-14T04:04:44;95855.78;;;15.58;76.78
23303;BME280;11820;48.738;9.092;2023-06-14T04:07:11;95857.56;;;15.58;76.63
23303;BME280;11820;48.738;9.092;2023-06-14T04:09:37;95858.81;;;15.55;77.28
23303;BME280;11820;48.738;9.092;2023-06-14T04:12:02;95866.91;;;15.54;77.08
23303;BME280;11820;48.738;9.092;2023-06-14T04:14:28;95858.88;;;15.44;77.28
23303;BME280;11820;48.738;9.092;2023-06-14T04:16:53;95867.53;;;15.61;76.44
23303;BME280;11820;48.738;9.092;2023-06-14T04:19:19;95869.13;;;15.62;77.53
23303;BME280;11820;48.738;9.092;2023-06-14T04:21:44;95880.75;;;15.71;76.68
23303;BME280;11820;48.738;9.092;2023-06-14T04:24:09;95884.75;;;15.62;76.75
23303;BME280;11820;48.738;9.092;2023-06-14T04:26:42;95880.94;;;15.53;76.94
23303;BME280;11820;48.738;9.092;2023-06-14T04:29:09;95884.75;;;15.62;77.18
23303;BME280;11820;48.738;9.092;2023-06-14T04:31:35;95879.00;;;15.60;78.11
23303;BME280;11820;48.738;9.092;2023-06-14T04:34:03;95883.53;;;15.81;77.50
23303;BME280;11820;48.738;9.092;2023-06-14T04:36:34;95883.16;;;15.61;78.34
23303;BME280;11820;48.738;9.092;2023-06-14T04:39:03;95881.47;;;15.83;78.26
23303;BME280;11820;48.738;9.092;2023-06-14T04:41:29;95882.97;;;15.79;79.20
23303;BME280;11820;48.738;9.092;2023-06-14T04:43:57;95881.06;;;15.74;79.43
23303;BME280;11820;48.738;9.092;2023-06-14T04:46:29;95890.22;;;15.60;80.80
23303;BME280;11820;48.738;9.092;2023-06-14T04:48:55;95887.38;;;15.62;81.25
23303;BME280;11820;48.738;9.092;2023-06-14T04:51:20;95891.19;;;15.71;81.28
23303;BME280;11820;48.738;9.092;2023-06-14T04:53:47;95889.19;;;15.61;81.83
23303;BME280;11820;48.738;9.092;2023-06-14T04:56:14;95896.97;;;15.73;82.20
23303;BME280;11820;48.738;9.092;2023-06-14T04:58:40;95898.63;;;15.79;83.28
23303;BME280;11820;48.738;9.092;2023-06-14T05:01:05;95899.41;;;15.79;84.08
23303;BME280;11820;48.738;9.092;2023-06-14T05:03:30;95900.47;;;15.67;86.16
23303;BME280;11820;48.738;9.092;2023-06-14T05:05:56;95901.41;;;15.89;86.35
23303;BME280;11820;48.738;9.092;2023-06-14T05:08:22;95908.63;;;16.15;85.29
23303;BME280;11820;48.738;9.092;2023-06-14T05:10:51;95916.63;;;16.08;86.23
23303;BME280;11820;48.738;9.092;2023-06-14T05:13:16;95921.03;;;16.08;87.41
23303;BME280;11820;48.738;9.092;2023-06-14T05:15:42;95916.31;;;16.21;87.42
23303;BME280;11820;48.738;9.092;2023-06-14T05:18:07;95912.81;;;16.16;89.03
23303;BME280;11820;48.738;9.092;2023-06-14T05:20:34;95921.97;;;16.02;90.77
23303;BME280;11820;48.738;9.092;2023-06-14T05:23:02;95919.28;;;15.97;92.46
23303;BME280;11820;48.738;9.092;2023-06-14T05:25:27;95920.78;;;16.37;89.83
23303;BME280;11820;48.738;9.092;2023-06-14T05:27:53;95916.50;;;16.47;88.74
23303;BME280;11820;48.738;9.092;2023-06-14T05:30:18;95919.50;;;16.56;89.21
23303;BME280;11820;48.738;9.092;2023-06-14T05:32:44;95915.22;;;16.66;90.11
23303;BME280;11820;48.738;9.092;2023-06-14T05:35:09;95922.94;;;16.78;88.84
23303;BME280;11820;48.738;9.092;2023-06-14T05:37:35;95916.31;;;16.87;88.52
23303;BME280;11820;48.738;9.092;2023-06-14T05:40:01;95930.53;;;16.96;87.47
23303;BME280;11820;48.738;9.092;2023-06-14T05:42:29;95923.19;;;17.14;84.03
23303;BME280;11820;48.738;9.092;2023-06-14T05:44:54;95920.53;;;17.09;83.24
23303;BME280;11820;48.738;9.092;2023-06-14T05:47:20;95926.56;;;17.31;81.40
23303;BME280;11820;48.738;9.092;2023-06-14T05:49:46;95916.19;;;17.36;81.43
23303;BME280;11820;48.738;9.092;2023-06-14T05:52:11;95923.47;;;17.56;79.36
23303;BME280;11820;48.738;9.092;2023-06-14T05:54:38;95928.91;;;17.49;79.43
23303;BME280;11820;48.738;9.092;2023-06-14T05:57:03;95926.06;;;17.56;80.00
23303;BME280;11820;48.738;9.092;2023-06-14T05:59:30;95925.91;;;17.62;79.71
23303;BME280;11820;48.738;9.092;2023-06-14T06:01:55;95920.53;;;17.74;78.43
23303;BME280;11820;48.738;9.092;2023-06-14T06:04:21;95917.72;;;17.80;76.62
23303;BME280;11820;48.738;9.092;2023-06-14T06:06:46;95921.88;;;17.76;77.65
23303;BME280;11820;48.738;9.092;2023-06-14T06:09:13;95919.41;;;17.91;77.05
23303;BME280;11820;48.738;9.092;2023-06-14T06:11:40;95923.53;;;17.87;75.65
23303;BME280;11820;48.738;9.092;2023-06-14T06:14:05;95925.81;;;18.05;75.40
23303;BME280;11820;48.738;9.092;2023-06-14T06:16:30;95920.66;;;18.15;75.58
23303;BME280;11820;48.738;9.092;2023-06-14T06:18:55;95919.06;;;18.09;74.73
23303;BME280;11820;48.738;9.092;2023-06-14T06:21:21;95925.91;;;18.15;74.32
23303;BME280;11820;48.738;9.092;2023-06-14T06:23:46;95929.06;;;18.17;74.16
23303;BME280;11820;48.738;9.092;2023-06-14T06:26:12;95921.25;;;18.22;74.44
23303;BME280;11820;48.738;9.092;2023-06-14T06:28:37;95933.44;;;18.33;73.78
23303;BME280;11820;48.738;9.092;2023-06-14T06:31:02;95927.13;;;18.29;73.95
23303;BME280;11820;48.738;9.092;2023-06-14T06:33:28;95938.66;;;18.33;73.51
23303;BME280;11820;48.738;9.092;2023-06-14T06:35:53;95934.38;;;18.53;74.24
23303;BME280;11820;48.738;9.092;2023-06-14T06:38:18;95925.06;;;18.67;74.88
23303;BME280;11820;48.738;9.092;2023-06-14T06:40:44;95932.94;;;18.72;73.46
23303;BME280;11820;48.738;9.092;2023-06-14T06:43:09;95930.72;;;18.91;71.49
23303;BME280;11820;48.738;9.092;2023-06-14T06:45:38;95938.63;;;19.01;71.06
23303;BME280;11820;48.738;9.092;2023-06-14T06:48:04;95934.22;;;19.06;69.44
23303;BME280;11820;48.738;9.092;2023-06-14T06:50:29;95941.47;;;19.31;67.36
23303;BME280;11820;48.738;9.092;2023-06-14T06:52:55;95943.06;;;19.42;67.79
23303;BME280;11820;48.738;9.092;2023-06-14T06:55:20;95944.94;;;19.46;66.62
23303;BME280;11820;48.738;9.092;2023-06-14T06:57:46;95947.69;;;19.25;66.94
23303;BME280;11820;48.738;9.092;2023-06-14T07:00:11;95950.94;;;19.42;66.92
23303;BME280;11820;48.738;9.092;2023-06-14T07:02:37;95957.72;;;19.28;66.38
23303;BME280;11820;48.738;9.092;2023-06-14T07:05:03;95960.34;;;19.28;65.96
23303;BME280;11820;48.738;9.092;2023-06-14T07:07:29;95963.94;;;19.22;65.50
23303;BME280;11820;48.738;9.092;2023-06-14T07:09:54;95964.03;;;19.32;67.02
23303;BME280;11820;48.738;9.092;2023-06-14T07:12:22;95967.69;;;19.36;67.29
23303;BME280;11820;48.738;9.092;2023-06-14T07:14:48;95964.91;;;19.52;67.86
23303;BME280;11820;48.738;9.092;2023-06-14T07:17:13;95963.75;;;19.38;68.58
23303;BME280;11820;48.738;9.092;2023-06-14T07:19:38;95965.41;;;19.49;68.09
23303;BME280;11820;48.738;9.092;2023-06-14T07:22:04;95974.34;;;19.58;67.73
23303;BME280;11820;48.738;9.092;2023-06-14T07:24:29;95968.28;;;19.48;67.36
23303;BME280;11820;48.738;9.092;2023-06-14T07:26:55;95970.97;;;19.58;67.64
23303;BME280;11820;48.738;9.092;2023-06-14T07:29:21;95983.25;;;19.47;66.21
23303;BME280;11820;48.738;9.092;2023-06-14T07:31:47;95979.28;;;20.01;67.20
23303;BME280;11820;48.738;9.092;2023-06-14T07:34:13;95979.69;;;19.78;67.52
23303;BME280;11820;48.738;9.092;2023-06-14T07:36:38;95980.50;;;19.83;66.98
23303;BME280;11820;48.738;9.092;2023-06-14T07:39:04;95978.56;;;20.65;67.55
23303;BME280;11820;48.738;9.092;2023-06-14T07:41:32;95985.88;;;20.28;67.17
23303;BME280;11820;48.738;9.092;2023-06-14T07:43:57;95997.53;;;19.76;67.55
23303;BME280;11820;48.738;9.092;2023-06-14T07:46:23;95990.69;;;19.70;66.82
23303;BME280;11820;48.738;9.092;2023-06-14T07:48:48;95995.72;;;19.81;67.71
23303;BME280;11820;48.738;9.092;2023-06-14T07:51:13;95999.19;;;19.97;68.37
23303;BME280;11820;48.738;9.092;2023-06-14T07:53:39;95991.00;;;19.78;68.98
23303;BME280;11820;48.738;9.092;2023-06-14T07:56:06;95991.56;;;19.95;69.46
23303;BME280;11820;48.738;9.092;2023-06-14T07:58:31;95993.34;;;19.80;68.91
23303;BME280;11820;48.738;9.092;2023-06-14T08:00:56;95992.41;;;20.01;67.62
23303;BME280;11820;48.738;9.092;2023-06-14T08:03:21;95997.94;;;20.14;66.30
23303;BME280;11820;48.738;9.092;2023-06-14T08:05:47;95999.00;;;20.08;66.89
23303;BME280;11820;48.738;9.092;2023-06-14T08:08:13;96000.06;;;20.17;69.11
23303;BME280;11820;48.738;9.092;2023-06-14T08:10:38;95990.09;;;20.24;69.27
23303;BME280;11820;48.738;9.092;2023-06-14T08:13:03;96000.84;;;20.18;68.99
23303;BME280;11820;48.738;9.092;2023-06-14T08:15:29;95999.28;;;20.17;68.04
23303;BME280;11820;48.738;9.092;2023-06-14T08:17:54;95997.66;;;20.16;65.22
23303;BME280;11820;48.738;9.092;2023-06-14T08:20:20;95990.34;;;20.28;64.94
23303;BME280;11820;48.738;9.092;2023-06-14T08:22:45;95995.91;;;20.36;63.40
23303;BME280;11820;48.738;9.092;2023-06-14T08:25:13;95998.53;;;20.36;63.32
23303;BME280;11820;48.738;9.092;2023-06-14T08:27:38;96005.88;;;20.34;63.60
23303;BME280;11820;48.738;9.092;2023-06-14T08:30:04;96005.34;;;20.47;62.27
23303;BME280;11820;48.738;9.092;2023-06-14T08:32:29;96004.31;;;20.33;62.09
23303;BME280;11820;48.738;9.092;2023-06-14T08:34:55;96002.22;;;20.55;62.14
23303;BME280;11820;48.738;9.092;2023-06-14T08:37:20;95999.06;;;20.53;62.49
23303;BME280;11820;48.738;9.092;2023-06-14T08:39:46;96004.84;;;20.60;62.51
23303;BME280;11820;48.738;9.092;2023-06-14T08:42:12;96007.22;;;20.62;62.97
23303;BME280;11820;48.738;9.092;2023-06-14T08:44:39;96001.72;;;20.58;63.25
23303;BME280;11820;48.738;9.092;2023-06-14T08:47:06;96003.81;;;20.56;63.58
23303;BME280;11820;48.738;9.092;2023-06-14T08:49:32;96006.19;;;20.78;64.00
23303;BME280;11820;48.738;9.092;2023-06-14T08:51:59;96006.94;;;20.78;64.10
23303;BME280;11820;48.738;9.092;2023-06-14T08:54:28;96012.00;;;20.95;64.62
23303;BME280;11820;48.738;9.092;2023-06-14T08:56:59;96013.00;;;20.79;65.29
23303;BME280;11820;48.738;9.092;2023-06-14T08:59:28;96017.00;;;21.06;65.76
23303;BME280;11820;48.738;9.092;2023-06-14T09:01:54;96011.44;;;21.13;64.56
23303;BME280;11820;48.738;9.092;2023-06-14T09:04:22;96011.47;;;20.98;64.99
23303;BME280;11820;48.738;9.092;2023-06-14T09:06:48;96010.41;;;21.19;64.48
23303;BME280;11820;48.738;9.092;2023-06-14T09:09:20;96011.19;;;21.14;63.88
23303;BME280;11820;48.738;9.092;2023-06-14T09:11:46;96006.94;;;21.33;64.81
23303;BME280;11820;48.738;9.092;2023-06-14T09:14:11;96008.56;;;21.09;64.67
23303;BME280;11820;48.738;9.092;2023-06-14T09:16:37;96015.66;;;21.14;65.99
23303;BME280;11820;48.738;9.092;2023-06-14T09:19:02;96020.91;;;21.24;64.70
23303;BME280;11820;48.738;9.092;2023-06-14T09:21:27;96021.16;;;21.32;64.59
23303;BME280;11820;48.738;9.092;2023-06-14T09:23:53;96019.06;;;21.14;64.37
23303;BME280;11820;48.738;9.092;2023-06-14T09:26:19;96023.28;;;21.15;64.58
23303;BME280;11820;48.738;9.092;2023-06-14T09:28:46;96017.75;;;21.22;62.85
23303;BME280;11820;48.738;9.092;2023-06-14T09:31:13;96014.78;;;21.48;62.80
23303;BME280;11820;48.738;9.092;2023-06-14T09:33:41;96029.78;;;21.62;62.42
23303;BME280;11820;48.738;9.092;2023-06-14T09:36:12;96020.56;;;21.55;61.85
23303;BME280;11820;48.738;9.092;2023-06-14T09:38:40;96017.16;;;21.54;62.14
23303;BME280;11820;48.738;9.092;2023-06-14T09:41:06;96021.88;;;21.72;60.92
23303;BME280;11820;48.738;9.092;2023-06-14T09:43:33;96026.09;;;21.73;61.05
23303;BME280;11820;48.738;9.092;2023-06-14T09:46:00;96023.34;;;21.98;60.58
23303;BME280;11820;48.738;9.092;2023-06-14T09:48:26;96026.19;;;22.07;60.45
23303;BME280;11820;48.738;9.092;2023-06-14T09:50:51;96024.63;;;22.06;59.42
23303;BME280;11820;48.738;9.092;2023-06-14T09:53:21;96025.06;;;22.23;58.03
23303;BME280;11820;48.738;9.092;2023-06-14T09:55:49;96026.09;;;22.27;57.47
23303;BME280;11820;48.738;9.092;2023-06-14T09:58:15;96018.47;;;22.25;57.75
23303;BME280;11820;48.738;9.092;2023-06-14T10:00:41;96025.91;;;22.13;58.50
23303;BME280;11820;48.738;9.092;2023-06-14T10:03:24;96024.91;;;22.04;58.70
23303;BME280;11820;48.738;9.092;2023-06-14T10:05:50;96011.25;;;21.97;57.94
23303;BME280;11820;48.738;9.092;2023-06-14T10:08:18;96015.22;;;22.43;57.78
23303;BME280;11820;48.738;9.092;2023-06-14T10:10:45;96017.38;;;22.75;57.13
23303;BME280;11820;48.738;9.092;2023-06-14T10:13:12;96018.09;;;22.85;53.98
23303;BME280;11820;48.738;9.092;2023-06-14T10:21:08;96019.84;;;23.00;50.71
23303;BME280;11820;48.738;9.092;2023-06-14T10:23:41;96015.03;;;22.73;50.50
23303;BME280;11820;48.738;9.092;2023-06-14T10:26:08;96007.25;;;23.20;52.06
23303;BME280;11820;48.738;9.092;2023-06-14T10:28:37;96000.75;;;23.08;52.72
23303;BME280;11820;48.738;9.092;2023-06-14T10:31:09;96010.38;;;22.94;55.21
23303;BME280;11820;48.738;9.092;2023-06-14T10:33:55;96009.03;;;22.96;56.21
23303;BME280;11820;48.738;9.092;2023-06-14T10:36:26;96005.75;;;23.09;56.02
23303;BME280;11820;48.738;9.092;2023-06-14T10:39:17;96005.28;;;23.35;54.40
23303;BME280;11820;48.738;9.092;2023-06-14T10:41:52;96005.09;;;23.27;52.26
23303;BME280;11820;48.738;9.092;2023-06-14T10:46:47;96011.41;;;23.54;50.76
23303;BME280;11820;48.738;9.092;2023-06-14T10:49:16;96000.59;;;23.56;50.58
23303;BME280;11820;48.738;9.092;2023-06-14T10:51:45;96005.94;;;23.46;51.64
23303;BME280;11820;48.738;9.092;2023-06-14T10:54:17;96009.91;;;23.20;51.82
23303;BME280;11820;48.738;9.092;2023-06-14T10:56:52;96002.72;;;22.92;51.90
23303;BME280;11820;48.738;9.092;2023-06-14T10:59:18;96012.72;;;22.67;52.06
23303;BME280;11820;48.738;9.092;2023-06-14T11:02:17;96010.06;;;22.67;51.93
23303;BME280;11820;48.738;9.092;2023-06-14T11:10:20;96005.31;;;23.30;52.71
23303;BME280;11820;48.738;9.092;2023-06-14T11:12:54;96004.59;;;22.92;53.51
23303;BME280;11820;48.738;9.092;2023-06-14T11:15:19;96006.25;;;22.83;54.36
23303;BME280;11820;48.738;9.092;2023-06-14T11:17:55;96002.66;;;22.69;54.51
23303;BME280;11820;48.738;9.092;2023-06-14T11:20:24;96002.72;;;22.64;54.19
23303;BME280;11820;48.738;9.092;2023-06-14T11:22:51;96012.66;;;22.72;54.50
23303;BME280;11820;48.738;9.092;2023-06-14T11:25:17;96019.03;;;22.66;54.32
23303;BME280;11820;48.738;9.092;2023-06-14T11:27:43;96021.59;;;22.76;54.08
23303;BME280;11820;48.738;9.092;2023-06-14T11:30:09;96017.44;;;22.70;54.29
23303;BME280;11820;48.738;9.092;2023-06-14T11:32:36;96016.38;;;22.71;53.90
23303;BME280;11820;48.738;9.092;2023-06-14T11:35:04;96017.38;;;22.75;54.26
23303;BME280;11820;48.738;9.092;2023-06-14T11:37:30;96020.19;;;22.88;54.04
23303;BME280;11820;48.738;9.092;2023-06-14T11:39:57;96016.69;;;22.98;53.16
23303;BME280;11820;48.738;9.092;2023-06-14T11:42:24;95998.63;;;23.66;52.13
23303;BME280;11820;48.738;9.092;2023-06-14T11:44:49;95999.19;;;23.87;51.87
23303;BME280;11820;48.738;9.092;2023-06-14T11:47:15;95997.22;;;24.16;52.17
23303;BME280;11820;48.738;9.092;2023-06-14T11:49:40;96001.59;;;24.25;50.57
23303;BME280;11820;48.738;9.092;2023-06-14T11:52:07;95995.47;;;24.48;50.49
23303;BME280;11820;48.738;9.092;2023-06-14T11:54:32;95991.16;;;24.15;50.13
23303;BME280;11820;48.738;9.092;2023-06-14T11:56:58;95991.03;;;24.25;49.53
23303;BME280;11820;48.738;9.092;2023-06-14T11:59:24;95994.09;;;24.14;49.33
23303;BME280;11820;48.738;9.092;2023-06-14T12:01:50;95998.97;;;23.83;49.87
23303;BME280;11820;48.738;9.092;2023-06-14T12:04:23;95991.59;;;24.22;48.40
23303;BME280;11820;48.738;9.092;2023-06-14T12:06:50;95997.03;;;24.49;48.44
23303;BME280;11820;48.738;9.092;2023-06-14T12:09:18;95998.59;;;24.50;48.30
23303;BME280;11820;48.738;9.092;2023-06-14T12:11:45;95993.00;;;24.57;46.99
23303;BME280;11820;48.738;9.092;2023-06-14T12:14:10;95994.53;;;24.39;47.48
23303;BME280;11820;48.738;9.092;2023-06-14T12:16:38;95994.00;;;24.00;47.00
23303;BME280;11820;48.738;9.092;2023-06-14T12:19:16;95984.88;;;24.67;46.90
23303;BME280;11820;48.738;9.092;2023-06-14T12:21:43;95986.84;;;24.93;46.75
23303;BME280;11820;48.738;9.092;2023-06-14T12:24:12;95972.91;;;24.88;47.06
23303;BME280;11820;48.738;9.092;2023-06-14T12:26:38;95992.88;;;24.80;47.44
23303;BME280;11820;48.738;9.092;2023-06-14T12:29:06;95987.44;;;24.90;47.82
23303;BME280;11820;48.738;9.092;2023-06-14T12:31:32;95992.25;;;24.33;48.29
23303;BME280;11820;48.738;9.092;2023-06-14T12:33:57;95994.50;;;24.02;48.04
23303;BME280;11820;48.738;9.092;2023-06-14T12:36:23;95992.59;;;23.84;47.42
23303;BME280;11820;48.738;9.092;2023-06-14T12:38:48;95987.94;;;24.00;47.97
23303;BME280;11820;48.738;9.092;2023-06-14T12:41:14;95990.13;;;23.93;48.37
23303;BME280;11820;48.738;9.092;2023-06-14T12:43:40;95997.38;;;23.82;48.50
23303;BME280;11820;48.738;9.092;2023-06-14T12:46:06;95990.44;;;24.28;47.21
23303;BME280;11820;48.738;9.092;2023-06-14T12:48:31;95989.66;;;24.46;46.61
23303;BME280;11820;48.738;9.092;2023-06-14T12:50:57;95990.72;;;24.82;45.95
23303;BME280;11820;48.738;9.092;2023-06-14T12:53:23;95982.28;;;25.44;45.87
23303;BME280;11820;48.738;9.092;2023-06-14T12:55:49;95984.44;;;25.55;45.59
23303;BME280;11820;48.738;9.092;2023-06-14T12:58:14;95984.63;;;25.45;46.37
23303;BME280;11820;48.738;9.092;2023-06-14T13:00:42;95987.50;;;25.17;46.06
23303;BME280;11820;48.738;9.092;2023-06-14T13:03:07;95980.09;;;25.19;45.27
23303;BME280;11820;48.738;9.092;2023-06-14T13:05:32;95986.69;;;25.48;44.45
23303;BME280;11820;48.738;9.092;2023-06-14T13:07:59;95991.59;;;25.82;44.47
23303;BME280;11820;48.738;9.092;2023-06-14T13:10:25;95990.72;;;25.59;45.04
23303;BME280;11820;48.738;9.092;2023-06-14T13:12:51;95993.69;;;24.81;45.20